createdAt,value
2019-04-21T00:01:18.267Z,100444.61
2019-04-21T00:03:52.205Z,100439.48
2019-04-21T00:06:36.935Z,100445.56
2019-04-21T00:09:11.478Z,100444.76
2019-04-21T00:14:03.755Z,100436.70
2019-04-21T00:16:24.665Z,100438.52
2019-04-21T00:18:59.156Z,100441.17
2019-04-21T00:21:29.174Z,100442.50
2019-04-21T00:24:23.017Z,100430.92
2019-04-21T00:26:59.045Z,100435.41
2019-04-21T00:29:35.406Z,100432.42
2019-04-21T00:31:56.639Z,100427.28
2019-04-21T00:34:13.312Z,100426.79
2019-04-21T00:36:53.663Z,100420.36
2019-04-21T00:39:43.655Z,100422.68
2019-04-21T00:41:59.594Z,100426.17
2019-04-21T00:44:26.190Z,100425.01
2019-04-21T00:47:00.695Z,100427.00
2019-04-21T00:49:28.237Z,100427.32
2019-04-21T00:52:26.408Z,100431.29
2019-04-21T00:54:58.594Z,100429.12
2019-04-21T00:57:26.573Z,100430.76
2019-04-21T00:59:56.537Z,100427.14
2019-04-21T01:02:19.923Z,100429.14
2019-04-21T01:04:49.535Z,100424.16
2019-04-21T01:07:19.385Z,100422.87
2019-04-21T01:09:45.321Z,100424.01
2019-04-21T01:12:19.513Z,100405.80
2019-04-21T01:14:58.166Z,100405.80
2019-04-21T01:17:21.848Z,100416.45
2019-04-21T01:19:43.893Z,100419.93
2019-04-21T01:21:59.259Z,100414.92
2019-04-21T01:24:33.022Z,100414.92
2019-04-21T01:27:06.741Z,100410.94
2019-04-21T01:29:51.293Z,100412.93
2019-04-21T01:32:39.012Z,100407.95
2019-04-21T01:34:45.375Z,100404.66
2019-04-21T01:37:12.792Z,100399.34
2019-04-21T01:39:53.280Z,100396.51
2019-04-21T01:42:18.346Z,100398.33
2019-04-21T01:44:49.998Z,100399.19
2019-04-21T01:47:17.361Z,100400.66
2019-04-21T01:49:41.477Z,100391.56
2019-04-21T01:52:24.705Z,100393.22
2019-04-21T01:55:04.876Z,100393.89
2019-04-21T01:57:26.296Z,100393.89
2019-04-21T01:59:54.254Z,100395.53
2019-04-21T02:02:29.397Z,100392.73
2019-04-21T02:05:06.983Z,100391.55
2019-04-21T02:07:33.940Z,100385.27
2019-04-21T02:10:04.816Z,100385.92
2019-04-21T02:12:34.539Z,100382.42
2019-04-21T02:15:04.891Z,100380.11
2019-04-21T02:17:27.962Z,100383.25
2019-04-21T02:19:56.156Z,100374.50
2019-04-21T02:22:46.172Z,100372.65
2019-04-21T02:25:08.635Z,100375.31
2019-04-21T02:27:36.291Z,100372.48
2019-04-21T02:30:10.673Z,100369.84
2019-04-21T02:32:48.219Z,100370.02
2019-04-21T02:35:20.797Z,100362.55
2019-04-21T02:38:01.236Z,100354.75
2019-04-21T02:40:19.061Z,100357.70
2019-04-21T02:42:46.348Z,100331.52
2019-04-21T02:45:11.367Z,100351.71
2019-04-21T02:50:22.324Z,100339.43
2019-04-21T02:52:43.460Z,100345.50
2019-04-21T02:57:51.348Z,100336.87
2019-04-21T03:00:26.171Z,100331.58
2019-04-21T03:02:54.490Z,100332.56
2019-04-21T03:05:36.406Z,100329.59
2019-04-21T03:10:49.974Z,100326.52
2019-04-21T03:15:39.986Z,100313.61
2019-04-21T03:18:24.256Z,100321.39
2019-04-21T03:25:49.753Z,100312.04
2019-04-21T03:28:14.111Z,100304.27
2019-04-21T03:38:16.799Z,100299.22
2019-04-21T03:43:16.279Z,100294.54
2019-04-21T03:45:49.295Z,100298.50
2019-04-21T03:48:09.299Z,100296.47
2019-04-21T03:50:44.089Z,100296.27
2019-04-21T03:53:09.291Z,100293.59
2019-04-21T03:58:35.145Z,100288.46
2019-04-21T04:08:55.260Z,100284.89
2019-04-21T04:11:23.421Z,100285.63
2019-04-21T04:14:01.973Z,100291.55
2019-04-21T04:16:16.982Z,100290.23
2019-04-21T04:21:19.893Z,100288.31
2019-04-21T04:26:17.002Z,100291.91
2019-04-21T04:29:04.329Z,100288.16
2019-04-21T04:31:25.829Z,100290.79
2019-04-21T04:33:57.775Z,100295.34
2019-04-21T04:36:24.370Z,100290.34
2019-04-21T04:39:18.019Z,100284.33
2019-04-21T04:44:12.849Z,100295.05
2019-04-21T04:46:55.761Z,100287.91
2019-04-21T04:49:11.159Z,100291.82
2019-04-21T04:51:48.284Z,100290.02
2019-04-21T04:54:17.103Z,100292.55
2019-04-21T04:56:38.757Z,100288.95
2019-04-21T04:59:24.543Z,100286.02
2019-04-21T05:04:45.508Z,100280.70
2019-04-21T05:07:07.070Z,100286.75
2019-04-21T05:09:41.244Z,100284.80
2019-04-21T05:12:05.862Z,100285.94
2019-04-21T05:14:39.022Z,100290.42
2019-04-21T05:17:14.263Z,100285.63
2019-04-21T05:19:41.459Z,100289.00
2019-04-21T05:22:14.228Z,100289.83
2019-04-21T05:24:28.973Z,100281.86
2019-04-21T05:26:59.533Z,100279.30
2019-04-21T05:29:56.873Z,100280.36
2019-04-21T05:32:27.006Z,100272.17
2019-04-21T05:34:57.037Z,100274.55
2019-04-21T05:37:43.438Z,100273.07
2019-04-21T05:40:10.613Z,100270.92
2019-04-21T05:42:42.489Z,100269.60
2019-04-21T05:45:26.942Z,100272.09
2019-04-21T05:48:10.054Z,100275.96
2019-04-21T05:50:27.956Z,100271.02
2019-04-21T05:52:53.573Z,100275.34
2019-04-21T05:55:42.679Z,100274.07
2019-04-21T05:58:04.193Z,100278.05
2019-04-21T06:03:07.887Z,100278.23
2019-04-21T06:08:09.752Z,100279.05
2019-04-21T06:10:44.626Z,100271.20
2019-04-21T06:13:13.376Z,100270.61
2019-04-21T06:15:47.266Z,100265.14
2019-04-21T06:18:13.243Z,100263.80
2019-04-21T06:20:40.658Z,100263.39
2019-04-21T06:23:14.798Z,100267.52
2019-04-21T06:25:50.020Z,100257.32
2019-04-21T06:28:13.762Z,100257.32
2019-04-21T06:30:56.201Z,100255.27
2019-04-21T06:33:04.919Z,100254.80
2019-04-21T06:36:21.580Z,100262.24
2019-04-21T06:38:33.825Z,100258.41
2019-04-21T06:40:56.398Z,100254.64
2019-04-21T06:43:44.792Z,100253.66
2019-04-21T06:45:54.004Z,100246.53
2019-04-21T06:48:28.473Z,100245.52
2019-04-21T06:51:03.164Z,100240.50
2019-04-21T06:53:29.666Z,100239.92
2019-04-21T06:55:51.853Z,100242.82
2019-04-21T06:58:26.315Z,100245.69
2019-04-21T07:00:50.916Z,100238.34
2019-04-21T07:03:26.861Z,100237.19
2019-04-21T07:05:57.626Z,100236.38
2019-04-21T07:08:44.702Z,100240.09
2019-04-21T07:10:59.111Z,100231.75
2019-04-21T07:13:22.434Z,100231.48
2019-04-21T07:15:57.985Z,100219.09
2019-04-21T07:18:30.037Z,100223.81
2019-04-21T07:20:54.977Z,100224.84
2019-04-21T07:23:31.964Z,100221.11
2019-04-21T07:25:57.876Z,100223.02
2019-04-21T07:28:25.292Z,100223.69
2019-04-21T07:30:59.579Z,100222.70
2019-04-21T07:33:49.257Z,100222.92
2019-04-21T07:35:55.462Z,100211.65
2019-04-21T07:38:27.221Z,100213.71
2019-04-21T07:40:53.907Z,100210.06
2019-04-21T07:43:21.940Z,100207.77
2019-04-21T07:45:51.579Z,100205.06
2019-04-21T07:48:26.312Z,100205.97
2019-04-21T07:51:11.203Z,100196.55
2019-04-21T07:53:59.633Z,100202.58
2019-04-21T07:56:07.341Z,100203.20
2019-04-21T07:58:53.812Z,100203.41
2019-04-21T08:01:27.431Z,100199.83
2019-04-21T08:03:54.397Z,100196.31
2019-04-21T08:06:25.348Z,100202.45
2019-04-21T08:08:46.717Z,100191.55
2019-04-21T08:11:20.994Z,100188.39
2019-04-21T08:13:53.574Z,100193.59
2019-04-21T08:16:24.444Z,100180.13
2019-04-21T08:18:54.887Z,100180.64
2019-04-21T08:21:24.679Z,100178.24
2019-04-21T08:23:48.544Z,100185.45
2019-04-21T08:26:26.179Z,100176.61
2019-04-21T08:28:58.881Z,100172.44
2019-04-21T08:31:25.158Z,100173.52
2019-04-21T08:33:55.401Z,100164.69
2019-04-21T08:36:24.597Z,100167.12
2019-04-21T08:38:54.447Z,100167.17
2019-04-21T08:41:18.626Z,100159.66
2019-04-21T08:43:54.604Z,100164.53
2019-04-21T08:46:27.280Z,100161.25
2019-04-21T08:48:56.669Z,100159.52
2019-04-21T08:51:39.476Z,100143.43
2019-04-21T08:54:07.679Z,100149.66
2019-04-21T08:56:32.004Z,100143.44
2019-04-21T08:59:21.869Z,100144.68
2019-04-21T09:01:50.090Z,100135.19
2019-04-21T09:04:24.481Z,100144.09
2019-04-21T09:09:27.855Z,100148.28
2019-04-21T09:11:54.103Z,100133.96
2019-04-21T09:14:24.257Z,100132.55
2019-04-21T09:16:47.604Z,100135.88
2019-04-21T09:19:34.060Z,100135.10
2019-04-21T09:24:22.254Z,100119.91
2019-04-21T09:26:51.394Z,100110.70
2019-04-21T09:29:10.929Z,100108.29
2019-04-21T09:31:39.170Z,100107.38
2019-04-21T09:34:06.629Z,100109.30
2019-04-21T09:36:42.727Z,100109.53
2019-04-21T09:39:14.141Z,100098.96
2019-04-21T09:41:39.399Z,100097.95
2019-04-21T09:44:15.080Z,100101.45
2019-04-21T09:46:45.323Z,100098.13
2019-04-21T09:49:12.560Z,100087.38
2019-04-21T09:51:39.628Z,100097.23
2019-04-21T09:54:12.614Z,100081.29
2019-04-21T09:56:46.309Z,100086.28
2019-04-21T09:59:17.992Z,100075.70
2019-04-21T10:01:52.911Z,100069.96
2019-04-21T10:04:09.884Z,100069.44
2019-04-21T10:06:39.530Z,100068.02
2019-04-21T10:09:13.951Z,100065.02
2019-04-21T10:11:41.477Z,100053.92
2019-04-21T10:14:10.221Z,100046.02
2019-04-21T10:16:53.944Z,100046.37
2019-04-21T10:19:23.332Z,100043.55
2019-04-21T10:21:52.140Z,100050.20
2019-04-21T10:24:20.649Z,100032.62
2019-04-21T10:26:49.395Z,100029.08
2019-04-21T10:29:24.311Z,100027.06
2019-04-21T10:31:48.145Z,100023.95
2019-04-21T10:34:17.048Z,100023.70
2019-04-21T10:36:46.962Z,100019.26
2019-04-21T10:39:15.797Z,100007.56
2019-04-21T10:41:45.691Z,100008.45
2019-04-21T10:44:14.196Z,99995.05
2019-04-21T10:46:45.347Z,99999.64
2019-04-21T10:49:12.915Z,100008.55
2019-04-21T10:51:41.660Z,99981.86
2019-04-21T10:54:11.438Z,99987.17
2019-04-21T10:56:43.425Z,99988.41
2019-04-21T10:59:10.413Z,99988.08
2019-04-21T11:01:39.056Z,99980.97
2019-04-21T11:04:17.210Z,99982.06
2019-04-21T11:06:39.163Z,99975.02
2019-04-21T11:09:10.753Z,99973.13
2019-04-21T11:11:39.783Z,99976.80
2019-04-21T11:14:08.660Z,99967.84
2019-04-21T11:16:37.342Z,99958.20
2019-04-21T11:19:06.377Z,99959.02
2019-04-21T11:21:34.920Z,99953.83
2019-04-21T11:24:03.923Z,99944.47
2019-04-21T11:26:33.703Z,99947.63
2019-04-21T11:29:03.138Z,99943.09
2019-04-21T11:31:31.655Z,99905.06
2019-04-21T11:34:00.876Z,99939.42
2019-04-21T11:36:29.477Z,99935.62
2019-04-21T11:39:16.894Z,99932.89
2019-04-21T11:41:32.363Z,99937.55
2019-04-21T11:44:01.427Z,99927.11
2019-04-21T11:46:30.772Z,99918.40
2019-04-21T11:49:00.044Z,99908.58
2019-04-21T11:51:28.969Z,99909.15
2019-04-21T11:53:59.070Z,99912.75
2019-04-21T11:56:27.968Z,99915.77
2019-04-21T11:58:57.827Z,99904.91
2019-04-21T12:01:27.539Z,99904.84
2019-04-21T12:03:56.214Z,99905.75
2019-04-21T12:06:32.338Z,99892.86
2019-04-21T12:08:57.661Z,99902.23
2019-04-21T12:11:25.274Z,99899.28
2019-04-21T12:13:54.245Z,99897.02
2019-04-21T12:16:23.341Z,99896.52
2019-04-21T12:18:52.435Z,99890.91
2019-04-21T12:21:21.240Z,99891.54
2019-04-21T12:23:50.277Z,99880.90
2019-04-21T12:26:19.938Z,99872.33
2019-04-21T12:28:50.039Z,99884.25
2019-04-21T12:31:36.447Z,99881.27
2019-04-21T12:34:07.773Z,99869.19
2019-04-21T12:36:36.338Z,99866.22
2019-04-21T12:39:08.412Z,99861.30
2019-04-21T12:41:36.499Z,99859.48
2019-04-21T12:44:05.071Z,99856.66
2019-04-21T12:46:33.941Z,99856.75
2019-04-21T12:49:02.421Z,99856.41
2019-04-21T12:51:30.922Z,99848.74
2019-04-21T12:53:59.626Z,99845.55
2019-04-21T12:56:29.403Z,99839.00
2019-04-21T12:58:57.909Z,99843.91
2019-04-21T13:01:27.394Z,99832.27
2019-04-21T13:03:56.022Z,99832.69
2019-04-21T13:06:25.503Z,99830.39
2019-04-21T13:09:02.999Z,99819.28
2019-04-21T13:11:25.409Z,99827.88
2019-04-21T13:13:53.936Z,99823.27
2019-04-21T13:16:23.366Z,99818.69
2019-04-21T13:18:53.343Z,99811.00
2019-04-21T13:21:22.419Z,99810.42
2019-04-21T13:23:50.949Z,99800.05
2019-04-21T13:26:29.596Z,99803.20
2019-04-21T13:28:50.084Z,99796.58
2019-04-21T13:31:18.629Z,99794.65
2019-04-21T13:33:48.113Z,99785.41
2019-04-21T13:36:17.992Z,99778.58
2019-04-21T13:39:26.257Z,99778.70
2019-04-21T13:41:41.660Z,99774.45
2019-04-21T13:44:13.957Z,99775.97
2019-04-21T13:46:45.114Z,99770.05
2019-04-21T13:49:13.974Z,99767.73
2019-04-21T13:51:43.971Z,99766.61
2019-04-21T13:54:13.860Z,99759.30
2019-04-21T13:56:42.635Z,99755.66
2019-04-21T13:59:11.107Z,99757.27
2019-04-21T14:01:39.724Z,99755.82
2019-04-21T14:04:09.396Z,99752.69
2019-04-21T14:06:38.437Z,99751.02
2019-04-21T14:09:11.408Z,99745.64
2019-04-21T14:11:41.125Z,99754.84
2019-04-21T14:14:10.368Z,99742.37
2019-04-21T14:16:40.141Z,99743.53
2019-04-21T14:19:09.711Z,99730.58
2019-04-21T14:21:39.116Z,99724.89
2019-04-21T14:24:08.907Z,99726.05
2019-04-21T14:26:38.562Z,99728.71
2019-04-21T14:29:08.254Z,99715.67
2019-04-21T14:31:38.123Z,99718.64
2019-04-21T14:34:07.936Z,99713.59
2019-04-21T14:36:37.060Z,99714.39
2019-04-21T14:39:08.547Z,99706.66
2019-04-21T14:41:38.031Z,99710.30
2019-04-21T14:44:06.980Z,99703.83
2019-04-21T14:46:37.427Z,99698.89
2019-04-21T14:49:21.282Z,99698.93
2019-04-21T14:51:52.677Z,99685.89
2019-04-21T14:54:23.146Z,99682.58
2019-04-21T14:56:51.680Z,99690.05
2019-04-21T14:59:21.378Z,99684.47
2019-04-21T15:01:49.982Z,99681.94
2019-04-21T15:04:19.375Z,99677.65
2019-04-21T15:06:49.558Z,99671.22
2019-04-21T15:09:18.897Z,99670.91
2019-04-21T15:11:47.807Z,99671.88
2019-04-21T15:14:17.754Z,99664.31
2019-04-21T15:16:47.074Z,99665.58
2019-04-21T15:19:16.847Z,99664.23
2019-04-21T15:21:45.331Z,99664.26
2019-04-21T15:24:14.236Z,99664.41
2019-04-21T15:26:44.325Z,99663.43
2019-04-21T15:29:12.955Z,99657.56
2019-04-21T15:31:44.597Z,99660.53
2019-04-21T15:34:13.002Z,99651.11
2019-04-21T15:36:41.915Z,99656.80
2019-04-21T15:39:11.755Z,99649.13
2019-04-21T15:41:40.819Z,99642.89
2019-04-21T15:44:09.895Z,99647.59
2019-04-21T15:46:39.784Z,99642.28
2019-04-21T15:49:09.191Z,99645.96
2019-04-21T15:51:38.021Z,99641.23
2019-04-21T15:54:07.007Z,99633.96
2019-04-21T15:56:46.972Z,99635.86
2019-04-21T15:59:17.058Z,99623.20
2019-04-21T16:01:48.355Z,99626.34
2019-04-21T16:04:17.209Z,99626.56
2019-04-21T16:06:47.790Z,99630.39
2019-04-21T16:09:21.105Z,99620.09
2019-04-21T16:11:46.438Z,99619.13
2019-04-21T16:14:14.837Z,99624.53
2019-04-21T16:16:43.344Z,99615.50
2019-04-21T16:19:12.306Z,99618.95
2019-04-21T16:21:44.300Z,99612.56
2019-04-21T16:24:12.235Z,99608.12
2019-04-21T16:26:42.559Z,99608.86
2019-04-21T16:29:11.395Z,99604.55
2019-04-21T16:31:40.379Z,99601.14
2019-04-21T16:34:09.303Z,99604.90
2019-04-21T16:36:38.073Z,99597.52
2019-04-21T16:39:07.557Z,99598.91
2019-04-21T16:41:36.185Z,99594.84
2019-04-21T16:44:05.120Z,99593.23
2019-04-21T16:46:33.682Z,99588.67
2019-04-21T16:49:02.232Z,99583.60
2019-04-21T16:51:31.855Z,99588.38
2019-04-21T16:54:02.102Z,99588.30
2019-04-21T16:56:33.262Z,99580.70
2019-04-21T16:59:03.382Z,99576.45
2019-04-21T17:01:32.508Z,99574.61
2019-04-21T17:04:02.413Z,99573.05
2019-04-21T17:06:31.241Z,99570.59
2019-04-21T17:09:00.992Z,99569.68
2019-04-21T17:11:34.699Z,99570.24
2019-04-21T17:14:00.541Z,99565.09
2019-04-21T17:16:58.362Z,99562.77
2019-04-21T17:19:10.800Z,99564.50
2019-04-21T17:21:30.166Z,99565.97
2019-04-21T17:23:59.018Z,99562.00
2019-04-21T17:26:28.893Z,99566.42
2019-04-21T17:28:58.734Z,99561.08
2019-04-21T17:31:28.585Z,99564.91
2019-04-21T17:34:02.231Z,99557.39
2019-04-21T17:36:27.384Z,99558.53
2019-04-21T17:38:55.891Z,99558.55
2019-04-21T17:41:31.832Z,99556.73
2019-04-21T17:43:56.049Z,99557.31
2019-04-21T17:46:33.531Z,99558.22
2019-04-21T17:48:55.284Z,99555.83
2019-04-21T17:51:25.702Z,99556.15
2019-04-21T17:54:03.177Z,99554.56
2019-04-21T17:57:00.183Z,99558.34
2019-04-21T17:59:28.014Z,99558.91
2019-04-21T18:01:56.409Z,99557.03
2019-04-21T18:04:25.919Z,99559.73
2019-04-21T18:07:02.399Z,99558.92
2019-04-21T18:09:47.061Z,99564.31
2019-04-21T18:12:09.153Z,99565.65
2019-04-21T18:14:21.889Z,99568.31
2019-04-21T18:16:51.573Z,99568.80
2019-04-21T18:19:26.007Z,99568.48
2019-04-21T18:22:08.540Z,99564.34
2019-04-21T18:24:47.640Z,99570.20
2019-04-21T18:27:11.040Z,99570.09
2019-04-21T18:29:40.093Z,99571.63
2019-04-21T18:32:08.539Z,99573.16
2019-04-21T18:34:52.377Z,99570.57
2019-04-21T18:37:14.204Z,99575.27
2019-04-21T18:40:01.650Z,99573.47
2019-04-21T18:43:04.477Z,99579.23
2019-04-21T18:45:48.988Z,99579.50
2019-04-21T18:48:18.369Z,99580.64
2019-04-21T18:50:58.901Z,99572.70
2019-04-21T18:53:40.982Z,99582.97
2019-04-21T18:56:00.354Z,99579.05
2019-04-21T18:58:24.375Z,99578.30
2019-04-21T19:00:58.310Z,99583.02
2019-04-21T19:03:30.677Z,99580.68
2019-04-21T19:06:01.707Z,99583.66
2019-04-21T19:08:46.952Z,99581.64
2019-04-21T19:11:13.491Z,99582.53
2019-04-21T19:14:15.812Z,99585.89
2019-04-21T19:16:38.736Z,99593.16
2019-04-21T19:19:22.816Z,99586.51
2019-04-21T19:21:24.479Z,99587.83
2019-04-21T19:24:16.265Z,99587.41
2019-04-21T19:26:37.728Z,99593.00
2019-04-21T19:29:01.505Z,99587.44
2019-04-21T19:31:34.982Z,99591.67
2019-04-21T19:33:51.614Z,99592.49
2019-04-21T19:36:15.104Z,99583.55
2019-04-21T19:38:55.911Z,99589.29
2019-04-21T19:41:28.071Z,99588.73
2019-04-21T19:44:02.519Z,99601.36
2019-04-21T19:46:33.143Z,99594.41
2019-04-21T19:49:13.409Z,99595.66
2019-04-21T19:51:26.221Z,99594.02
2019-04-21T19:53:56.338Z,99589.30
2019-04-21T19:56:16.165Z,99587.45
2019-04-21T19:58:47.354Z,99588.77
2019-04-21T20:04:24.185Z,99588.77
2019-04-21T20:07:01.874Z,99586.12
2019-04-21T20:09:37.199Z,99582.07
2019-04-21T20:12:06.632Z,99584.50
2019-04-21T20:17:06.607Z,99578.53
2019-04-21T20:19:22.964Z,99575.70
2019-04-21T20:21:53.373Z,99575.70
2019-04-21T20:24:26.593Z,99580.81
2019-04-21T20:27:04.733Z,99582.02
2019-04-21T20:29:44.558Z,99580.42
2019-04-21T20:32:16.351Z,99580.63
2019-04-21T20:34:41.443Z,99574.25
2019-04-21T20:37:09.297Z,99577.05
2019-04-21T20:39:27.024Z,99573.56
2019-04-21T20:42:08.623Z,99574.47
2019-04-21T20:44:40.213Z,99573.32
2019-04-21T20:47:07.418Z,99568.29
2019-04-21T20:49:34.123Z,99569.16
2019-04-21T20:52:18.942Z,99570.89
2019-04-21T20:54:40.992Z,99570.98
2019-04-21T20:57:11.521Z,99562.73
2019-04-21T20:59:37.512Z,99564.38
2019-04-21T21:02:10.215Z,99560.66
2019-04-21T21:04:36.870Z,99529.60
2019-04-21T21:07:25.556Z,99556.72
2019-04-21T21:09:41.490Z,99562.80
2019-04-21T21:12:25.747Z,99563.34
2019-04-21T21:14:36.424Z,99557.88
2019-04-21T21:17:25.386Z,99561.45
2019-04-21T21:19:48.709Z,99561.70
2019-04-21T21:22:06.047Z,99553.71
2019-04-21T21:25:00.246Z,99553.02
2019-04-21T21:27:12.950Z,99555.06
2019-04-21T21:29:45.163Z,99557.85
2019-04-21T21:34:45.400Z,99565.04
2019-04-21T21:37:21.871Z,99556.61
2019-04-21T21:39:54.402Z,99561.01
2019-04-21T21:42:02.139Z,99561.20
2019-04-21T21:44:28.726Z,99562.34
2019-04-21T21:47:05.326Z,99559.58
2019-04-21T21:49:43.971Z,99556.79
2019-04-21T21:52:06.698Z,99550.28
2019-04-21T21:54:27.709Z,99550.28
2019-04-21T21:56:58.664Z,99551.00
2019-04-21T21:59:31.080Z,99556.70
2019-04-21T22:01:58.319Z,99551.70
2019-04-21T22:04:30.733Z,99552.92
2019-04-21T22:07:04.843Z,99551.67
2019-04-21T22:09:28.337Z,99549.92
2019-04-21T22:12:00.850Z,99544.81
2019-04-21T22:14:36.437Z,99545.83
2019-04-21T22:17:10.940Z,99544.86
2019-04-21T22:19:51.212Z,99539.11
2019-04-21T22:22:13.948Z,99541.26
2019-04-21T22:24:41.439Z,99534.89
2019-04-21T22:26:58.942Z,99528.56
2019-04-21T22:29:34.993Z,99535.20
2019-04-21T22:32:05.041Z,99534.58
2019-04-21T22:34:35.759Z,99537.73
2019-04-21T22:37:16.130Z,99538.44
2019-04-21T22:39:44.967Z,99554.23
2019-04-21T22:42:05.525Z,99533.73
2019-04-21T22:44:28.357Z,99539.93
2019-04-21T22:47:04.970Z,99533.98
2019-04-21T22:49:26.879Z,99538.36
2019-04-21T22:51:55.715Z,99526.66
2019-04-21T22:54:30.146Z,99538.16
2019-04-21T22:57:02.583Z,99538.16
2019-04-21T22:59:27.840Z,99536.92
2019-04-21T23:01:55.830Z,99536.92
2019-04-21T23:04:32.965Z,99533.11
2019-04-21T23:06:59.903Z,99527.96
2019-04-21T23:09:26.669Z,99529.54
2019-04-21T23:11:59.327Z,99529.54
2019-04-21T23:14:27.973Z,99533.89
2019-04-21T23:17:14.914Z,99532.66
2019-04-21T23:19:38.858Z,99524.73
2019-04-21T23:22:17.310Z,99524.60
2019-04-21T23:24:54.582Z,99525.93
2019-04-21T23:27:11.645Z,99525.93
2019-04-21T23:29:55.769Z,99525.42
2019-04-21T23:32:13.136Z,99525.03
2019-04-21T23:34:32.506Z,99521.97
2019-04-21T23:37:06.766Z,99525.31
2019-04-21T23:39:32.027Z,99523.19
2019-04-21T23:42:00.887Z,99526.77
2019-04-21T23:44:28.268Z,99522.16
2019-04-21T23:47:01.445Z,99521.16
2019-04-21T23:49:40.493Z,99517.17
2019-04-21T23:52:02.976Z,99512.84
2019-04-21T23:54:27.488Z,99513.16
2019-04-21T23:56:55.971Z,99510.84
2019-04-21T23:59:24.819Z,99515.41
